createdAt,value
2022-12-13T00:03:34.222Z,57.20
2022-12-13T00:07:38.499Z,48.78
2022-12-13T00:11:44.640Z,37.72
2022-12-13T00:15:58.701Z,46.15
2022-12-13T00:20:03.894Z,49.25
2022-12-13T00:28:14.185Z,58.60
2022-12-13T00:32:18.561Z,56.80
2022-12-13T00:36:25.705Z,46.67
2022-12-13T00:40:30.681Z,47.75
2022-12-13T00:44:36.415Z,44.65
2022-12-13T00:48:40.475Z,52.05
2022-12-13T00:52:44.918Z,44.55
2022-12-13T00:56:48.959Z,46.72
2022-12-13T01:00:55.840Z,44.80
2022-12-13T01:05:00.144Z,37.78
2022-12-13T01:09:04.630Z,40.17
2022-12-13T01:13:09.037Z,42.00
2022-12-13T01:17:14.688Z,40.28
2022-12-13T01:21:20.485Z,40.45
2022-12-13T01:25:27.042Z,41.05
2022-12-13T01:29:30.996Z,50.38
2022-12-13T01:33:36.994Z,50.08
2022-12-13T01:37:41.142Z,38.67
2022-12-13T01:41:46.373Z,56.63
2022-12-13T01:49:56.966Z,34.47
2022-12-13T01:54:05.755Z,43.72
2022-12-13T01:58:10.369Z,46.85
2022-12-13T02:02:14.684Z,45.60
2022-12-13T02:06:22.997Z,38.75
2022-12-13T02:10:27.918Z,35.60
2022-12-13T02:14:33.396Z,46.03
2022-12-13T02:18:50.125Z,43.58
2022-12-13T02:23:11.493Z,40.17
2022-12-13T02:27:30.708Z,33.53
2022-12-13T02:31:43.221Z,42.10
2022-12-13T02:35:54.083Z,35.88
2022-12-13T02:40:01.661Z,39.10
2022-12-13T02:44:21.876Z,41.03
2022-12-13T02:52:46.862Z,40.10
2022-12-13T02:56:55.586Z,45.40
2022-12-13T03:01:27.839Z,33.22
2022-12-13T03:06:09.952Z,50.40
2022-12-13T03:10:18.909Z,39.00
2022-12-13T03:14:23.428Z,45.92
2022-12-13T03:18:28.947Z,48.95
2022-12-13T03:22:34.853Z,43.08
2022-12-13T03:26:40.550Z,35.88
2022-12-13T03:30:43.677Z,35.35
2022-12-13T03:34:50.853Z,18.95
2022-12-13T03:39:03.595Z,52.00
2022-12-13T03:43:08.757Z,40.30
2022-12-13T03:47:12.072Z,37.53
2022-12-13T03:51:15.321Z,37.65
2022-12-13T03:55:18.511Z,31.98
2022-12-13T03:59:22.869Z,50.92
2022-12-13T04:03:26.299Z,34.58
2022-12-13T04:07:34.401Z,39.42
2022-12-13T04:11:54.748Z,55.30
2022-12-13T04:15:59.045Z,47.42
2022-12-13T04:20:02.308Z,51.25
2022-12-13T04:24:06.127Z,46.58
2022-12-13T05:32:24.821Z,32.83
2022-12-13T07:37:55.325Z,43.55
2022-12-13T08:20:33.892Z,42.10
2022-12-13T08:42:00.416Z,36.22
2022-12-13T08:46:19.354Z,27.02
2022-12-13T08:50:23.743Z,31.52
2022-12-13T08:54:31.752Z,24.30
2022-12-13T08:58:36.301Z,28.55
2022-12-13T09:02:40.461Z,27.80
2022-12-13T09:06:44.963Z,23.17
2022-12-13T09:10:49.953Z,27.00
2022-12-13T09:15:03.856Z,22.50
2022-12-13T09:19:26.305Z,23.88
2022-12-13T09:23:31.551Z,19.38
2022-12-13T09:27:40.723Z,17.38
2022-12-13T09:31:52.688Z,18.70
2022-12-13T09:36:01.351Z,22.98
2022-12-13T11:10:27.553Z,20.27
2022-12-13T11:48:50.945Z,16.08
2022-12-13T11:52:55.157Z,13.57
2022-12-13T11:57:01.061Z,15.88
2022-12-13T12:01:09.532Z,15.30
2022-12-13T12:05:28.216Z,15.95
2022-12-13T12:13:51.570Z,14.45
2022-12-13T12:17:55.560Z,13.65
2022-12-13T12:22:14.185Z,14.75
2022-12-13T12:26:19.234Z,13.52
2022-12-13T12:30:24.276Z,13.70
2022-12-13T12:34:34.780Z,19.95
2022-12-13T12:38:53.281Z,17.80
2022-12-13T12:43:16.711Z,14.80
2022-12-13T12:47:47.979Z,17.48
2022-12-13T12:51:57.110Z,17.73
2022-12-13T12:56:10.579Z,16.33
2022-12-13T13:00:15.644Z,16.80
2022-12-13T13:04:22.087Z,14.85
2022-12-13T13:08:30.085Z,16.40
2022-12-13T13:12:34.995Z,14.52
2022-12-13T13:16:45.853Z,12.45
2022-12-13T13:21:27.282Z,15.32
2022-12-13T13:25:32.442Z,14.02
2022-12-13T13:29:38.704Z,18.25
2022-12-13T13:33:48.523Z,11.43
2022-12-13T13:42:16.921Z,17.60
2022-12-13T13:46:21.021Z,16.90
2022-12-13T13:59:15.699Z,15.75
2022-12-13T14:03:50.821Z,14.43
2022-12-13T14:08:20.455Z,13.93
2022-12-13T14:12:46.298Z,15.68
2022-12-13T14:21:20.654Z,13.45
2022-12-13T14:25:52.580Z,15.13
2022-12-13T14:29:58.154Z,16.38
2022-12-13T14:34:03.053Z,13.60
2022-12-13T14:38:13.551Z,14.57
2022-12-13T14:42:24.406Z,15.60
2022-12-13T14:46:27.197Z,11.10
2022-12-13T14:50:35.372Z,13.88
2022-12-13T14:54:45.553Z,13.82
2022-12-13T14:58:54.269Z,15.40
2022-12-13T15:02:59.832Z,9.27
2022-12-13T15:07:07.656Z,14.35
2022-12-13T15:11:11.967Z,16.25
2022-12-13T15:15:24.401Z,15.65
2022-12-13T15:19:32.991Z,13.57
2022-12-13T15:23:48.906Z,16.73
2022-12-13T15:27:55.747Z,19.17
2022-12-13T15:31:59.621Z,16.52
2022-12-13T15:36:06.865Z,12.00
2022-12-13T15:40:14.376Z,12.20
2022-12-13T15:44:21.377Z,17.30
2022-12-13T15:48:26.765Z,17.13
2022-12-13T15:52:33.381Z,13.80
2022-12-13T15:56:38.321Z,14.48
2022-12-13T16:09:19.175Z,15.90
2022-12-13T16:13:26.850Z,17.23
2022-12-13T16:17:32.114Z,16.63
2022-12-13T16:30:15.432Z,17.42
2022-12-13T16:34:20.278Z,18.05
2022-12-13T17:12:45.870Z,17.42
2022-12-13T18:38:26.183Z,21.75
2022-12-13T18:42:32.360Z,19.77
2022-12-13T18:46:37.441Z,18.05
2022-12-13T18:50:45.578Z,20.45
2022-12-13T19:26:47.431Z,20.73
2022-12-13T19:30:50.250Z,20.55
2022-12-13T19:34:53.255Z,20.25
2022-12-13T19:38:56.962Z,21.25
2022-12-13T19:43:01.553Z,21.17
2022-12-13T19:47:04.587Z,17.95
2022-12-13T19:51:08.766Z,19.42
2022-12-13T19:55:12.023Z,16.73
2022-12-13T19:59:16.503Z,17.92
2022-12-13T20:03:19.682Z,20.42
2022-12-13T20:07:23.920Z,18.55
2022-12-13T20:11:27.113Z,15.88
2022-12-13T20:15:31.943Z,20.58
2022-12-13T20:23:38.223Z,16.88
2022-12-13T20:27:41.945Z,15.55
2022-12-13T20:31:48.294Z,17.63
2022-12-13T20:44:30.193Z,18.38
2022-12-13T20:48:37.390Z,16.05
2022-12-13T20:52:40.661Z,19.67
2022-12-13T20:56:43.959Z,20.85
2022-12-13T21:00:47.245Z,12.95
2022-12-13T21:04:52.038Z,17.40
2022-12-13T21:08:56.782Z,15.68
2022-12-13T21:13:00.144Z,17.77
2022-12-13T21:17:04.716Z,19.73
2022-12-13T21:21:09.828Z,15.82
2022-12-13T21:25:14.136Z,19.83
2022-12-13T21:29:17.579Z,20.02
2022-12-13T21:33:20.863Z,18.25
2022-12-13T21:37:25.620Z,15.88
2022-12-13T21:41:29.762Z,16.50
2022-12-13T21:45:34.826Z,16.08
2022-12-13T21:49:38.628Z,18.75
2022-12-13T21:53:44.229Z,23.33
2022-12-13T21:58:07.928Z,18.75
2022-12-13T22:02:14.889Z,17.33
2022-12-13T22:06:18.378Z,18.10
2022-12-13T22:10:22.963Z,23.58
2022-12-13T22:14:26.427Z,15.55
2022-12-13T22:18:30.520Z,19.05
2022-12-13T22:35:26.610Z,18.42
2022-12-13T22:43:48.555Z,18.20
2022-12-13T22:47:51.349Z,19.75
2022-12-13T23:39:17.309Z,16.17
2022-12-13T23:43:20.324Z,16.98
2022-12-13T23:47:23.608Z,18.30
2022-12-13T23:51:27.508Z,20.42
2022-12-13T23:55:32.104Z,16.35
2022-12-13T23:59:36.384Z,16.92
